Time;durP1;ratioP1;P1;durP2;ratioP2;P2;SDS_P1;SDS_P2;PMS_P1;PMS_P2;Temp;Humidity;BMP_temperature;BMP_pressure;BME280_temperature;BME280_humidity;BME280_pressure;Samples;Min_cycle;Max_cycle;Signal;HPM_P1;HPM_P2
2023/05/11 00:02:01;;;;;;;7.53;5.22;;;;;;;12.38;90.66;100400.91;5052476;28;20055;-76
2023/05/11 00:04:28;;;;;;;7.90;4.03;;;;;;;12.33;91.09;100396.66;5055631;28;20025;-77
2023/05/11 00:06:55;;;;;;;7.35;4.80;;;;;;;12.30;91.56;100400.56;5056329;28;20041;-81
2023/05/11 00:09:20;;;;;;;6.82;4.75;;;;;;;12.25;91.76;100399.19;5055209;28;20119;-78
2023/05/11 00:11:46;;;;;;;7.03;4.40;;;;;;;12.22;91.88;100405.91;5055286;28;20084;-77
2023/05/11 00:14:15;;;;;;;6.47;4.45;;;;;;;12.18;92.55;100401.69;5056400;28;20013;-77
2023/05/11 00:16:42;;;;;;;8.30;5.05;;;;;;;12.15;92.85;100400.63;5056330;28;20033;-78
2023/05/11 00:19:07;;;;;;;5.90;4.07;;;;;;;12.11;93.36;100407.88;5054996;28;20029;-79
2023/05/11 00:21:33;;;;;;;7.00;4.55;;;;;;;12.03;93.87;100404.63;5055988;28;20394;-78
2023/05/11 00:23:59;;;;;;;9.02;4.72;;;;;;;11.99;94.73;100400.41;5054838;28;20017;-78
2023/05/11 00:26:27;;;;;;;5.57;3.72;;;;;;;11.91;95.49;100405.00;5055900;28;20036;-77
2023/05/11 00:28:53;;;;;;;8.45;4.75;;;;;;;11.90;95.39;100407.06;5037953;28;20178;-79
2023/05/11 00:31:19;;;;;;;7.15;4.47;;;;;;;11.86;95.33;100406.50;5055919;28;20047;-76
2023/05/11 00:33:46;;;;;;;5.65;4.50;;;;;;;11.79;96.03;100407.69;5056110;28;20437;-77
2023/05/11 00:36:12;;;;;;;10.60;4.97;;;;;;;11.72;96.55;100404.44;5054432;28;20028;-78
2023/05/11 00:38:48;;;;;;;7.93;4.75;;;;;;;11.66;96.94;100406.47;5053906;28;20061;-78
2023/05/11 00:41:15;;;;;;;6.75;4.30;;;;;;;11.59;96.98;100404.78;5054652;28;20037;-77
2023/05/11 00:43:41;;;;;;;9.07;4.63;;;;;;;11.53;96.95;100409.63;5055779;28;20029;-76
2023/05/11 00:46:07;;;;;;;5.90;4.40;;;;;;;11.47;97.09;100410.84;5054257;28;20450;-76
2023/05/11 00:48:33;;;;;;;7.80;4.43;;;;;;;11.38;98.68;100408.88;5036628;28;20021;-77
2023/05/11 00:50:59;;;;;;;7.75;4.82;;;;;;;11.33;99.21;100406.72;5053118;28;20052;-76
2023/05/11 00:53:30;;;;;;;8.05;4.53;;;;;;;11.23;99.59;100402.38;5034669;28;20083;-78
2023/05/11 00:55:56;;;;;;;8.60;4.83;;;;;;;11.23;100.00;100408.13;5053741;28;20061;-76
2023/05/11 00:58:21;;;;;;;9.32;4.88;;;;;;;11.21;100.00;100402.13;5066855;28;20051;-77
2023/05/11 01:00:48;;;;;;;10.50;5.28;;;;;;;11.18;100.00;100400.22;5055600;28;20024;-76
2023/05/11 01:03:14;;;;;;;8.05;4.70;;;;;;;11.21;100.00;100402.13;5053279;28;20379;-78
2023/05/11 01:05:48;;;;;;;7.80;5.00;;;;;;;11.22;100.00;100403.69;5053157;28;20017;-78
2023/05/11 01:08:35;;;;;;;6.03;4.45;;;;;;;11.28;100.00;100405.34;5035851;28;20047;-77
2023/05/11 01:11:15;;;;;;;8.40;4.72;;;;;;;11.29;100.00;100406.13;5054095;28;20029;-78
2023/05/11 01:14:00;;;;;;;8.27;4.40;;;;;;;11.29;100.00;100404.06;5053847;28;20029;-77
2023/05/11 01:16:27;;;;;;;6.30;4.35;;;;;;;11.31;100.00;100407.22;5053416;28;20041;-75
2023/05/11 01:19:37;;;;;;;7.32;5.28;;;;;;;11.34;100.00;100403.38;5054697;28;20037;-76
2023/05/11 01:22:27;;;;;;;10.27;4.53;;;;;;;11.38;99.64;100403.16;4993491;28;20065;-78
2023/05/11 01:25:10;;;;;;;8.10;4.40;;;;;;;11.36;99.55;100409.41;4993458;28;20088;-76
2023/05/11 01:27:58;;;;;;;8.68;4.82;;;;;;;11.39;99.75;100404.75;4993153;28;20038;-77
2023/05/11 01:30:40;;;;;;;10.30;4.80;;;;;;;11.39;99.10;100407.59;4977130;28;20028;-77
2023/05/11 01:33:09;;;;;;;9.23;5.47;;;;;;;11.41;98.99;100405.03;5001314;28;20094;-78
2023/05/11 01:35:41;;;;;;;6.78;4.30;;;;;;;11.45;98.68;100413.41;5053552;28;20025;-78
2023/05/11 01:38:13;;;;;;;8.23;4.85;;;;;;;11.45;98.57;100405.63;5037348;28;20025;-77
2023/05/11 01:40:41;;;;;;;10.57;5.38;;;;;;;11.41;98.95;100407.91;5036634;28;20029;-77
2023/05/11 01:43:11;;;;;;;10.80;4.90;;;;;;;11.42;98.81;100409.47;5053240;28;20110;-76
2023/05/11 01:45:43;;;;;;;7.15;4.65;;;;;;;11.42;99.56;100411.56;5036614;28;20025;-79
2023/05/11 01:48:15;;;;;;;5.88;4.40;;;;;;;11.35;100.00;100409.88;5037055;28;20108;-76
2023/05/11 01:50:44;;;;;;;6.72;4.57;;;;;;;11.26;100.00;100407.94;5053279;28;20017;-77
2023/05/11 01:53:11;;;;;;;9.43;5.22;;;;;;;11.34;100.00;100416.88;5054403;28;20383;-77
2023/05/11 01:55:39;;;;;;;7.55;4.68;;;;;;;11.31;100.00;100417.88;5035629;28;20037;-77
2023/05/11 01:58:05;;;;;;;11.57;5.22;;;;;;;11.28;100.00;100416.00;5036360;28;20033;-76
2023/05/11 02:00:32;;;;;;;7.32;4.80;;;;;;;11.25;100.00;100422.72;5036438;28;20029;-77
2023/05/11 02:03:07;;;;;;;9.13;5.07;;;;;;;11.24;100.00;100427.66;5036044;28;20137;-77
2023/05/11 02:05:33;;;;;;;8.57;4.90;;;;;;;11.22;100.00;100426.59;5061057;28;20067;-77
2023/05/11 02:08:02;;;;;;;7.95;4.40;;;;;;;11.18;100.00;100420.25;5064892;28;20084;-77
2023/05/11 02:10:28;;;;;;;8.77;5.35;;;;;;;11.18;100.00;100417.38;5045788;28;20027;-76
2023/05/11 02:12:55;;;;;;;7.55;5.43;;;;;;;11.16;100.00;100426.47;5040307;28;20027;-78
2023/05/11 02:15:21;;;;;;;10.15;5.22;;;;;;;11.14;100.00;100426.19;5053139;28;20029;-76
2023/05/11 02:17:49;;;;;;;12.05;6.10;;;;;;;11.16;100.00;100426.47;5052942;28;20016;-77
2023/05/11 02:20:17;;;;;;;11.63;5.97;;;;;;;11.14;100.00;100422.53;5035873;28;20517;-77
2023/05/11 02:22:44;;;;;;;10.40;5.55;;;;;;;11.13;100.00;100416.00;5035888;28;20053;-77
2023/05/11 02:25:10;;;;;;;9.57;5.28;;;;;;;11.11;100.00;100427.19;5035911;28;20366;-77
2023/05/11 02:27:36;;;;;;;14.52;5.38;;;;;;;11.11;100.00;100423.50;5052699;28;20025;-76
2023/05/11 02:30:04;;;;;;;8.50;4.78;;;;;;;11.15;100.00;100424.09;5053392;28;20079;-77
2023/05/11 02:32:34;;;;;;;8.45;5.68;;;;;;;11.14;100.00;100428.25;5052318;28;20143;-77
2023/05/11 02:35:22;;;;;;;11.52;5.60;;;;;;;11.11;100.00;100427.19;5035730;28;20118;-77
2023/05/11 02:37:49;;;;;;;6.70;4.57;;;;;;;11.11;100.00;100434.94;5050875;28;20041;-78
2023/05/11 02:40:17;;;;;;;11.10;5.00;;;;;;;11.08;100.00;100430.19;5035885;28;20039;-78
2023/05/11 02:42:45;;;;;;;10.20;5.40;;;;;;;11.08;100.00;100430.97;5035595;28;20033;-77
2023/05/11 02:45:14;;;;;;;8.20;5.05;;;;;;;11.07;100.00;100420.84;5019271;28;20118;-76
2023/05/11 02:47:46;;;;;;;8.98;5.35;;;;;;;11.09;100.00;100428.91;5052171;28;20052;-76
2023/05/11 02:50:23;;;;;;;9.57;5.25;;;;;;;11.06;100.00;100421.31;5052194;28;20035;-77
2023/05/11 02:52:48;;;;;;;11.60;5.47;;;;;;;11.03;100.00;100423.09;5054762;28;20036;-77
2023/05/11 02:55:16;;;;;;;9.60;5.53;;;;;;;10.98;100.00;100424.56;5037247;28;20021;-76
2023/05/11 02:57:43;;;;;;;10.70;5.88;;;;;;;10.97;100.00;100422.97;5035889;28;20029;-75
2023/05/11 03:00:11;;;;;;;10.25;5.70;;;;;;;10.96;100.00;100426.34;5019076;28;20486;-77
2023/05/11 03:02:38;;;;;;;12.05;5.63;;;;;;;10.95;100.00;100430.50;5052043;28;20064;-76
2023/05/11 03:05:04;;;;;;;8.63;5.70;;;;;;;10.97;100.00;100416.50;5051966;28;20098;-77
2023/05/11 03:07:32;;;;;;;10.38;6.57;;;;;;;10.95;100.00;100424.78;5053266;28;20458;-76
2023/05/11 03:10:07;;;;;;;13.07;5.38;;;;;;;10.97;100.00;100430.81;5035369;28;20037;-77
2023/05/11 03:12:34;;;;;;;9.75;5.38;;;;;;;10.96;100.00;100420.63;5051838;28;20029;-78
2023/05/11 03:15:02;;;;;;;11.68;6.05;;;;;;;10.97;100.00;100428.69;5034949;28;20079;-78
2023/05/11 03:17:29;;;;;;;11.55;5.55;;;;;;;10.97;100.00;100425.09;5053330;28;20021;-77
2023/05/11 03:19:57;;;;;;;10.30;5.55;;;;;;;10.93;100.00;100428.13;5054336;28;20032;-76
2023/05/11 03:22:24;;;;;;;10.82;6.28;;;;;;;10.94;100.00;100428.91;5052622;28;20021;-77
2023/05/11 03:24:51;;;;;;;11.60;5.93;;;;;;;10.93;100.00;100433.03;5035478;28;20024;-77
2023/05/11 03:27:18;;;;;;;12.35;6.13;;;;;;;10.90;100.00;100428.31;5051821;28;20025;-77
2023/05/11 03:29:45;;;;;;;11.40;5.40;;;;;;;10.82;100.00;100435.72;5052668;28;20493;-76
2023/05/11 03:32:12;;;;;;;14.20;6.28;;;;;;;10.84;100.00;100436.00;5051629;28;20028;-76
2023/05/11 03:34:39;;;;;;;12.80;5.25;;;;;;;10.84;100.00;100433.13;5034921;28;20033;-76
2023/05/11 03:37:20;;;;;;;12.40;6.32;;;;;;;10.87;100.00;100438.69;5035005;28;20094;-77
2023/05/11 03:39:47;;;;;;;8.98;5.15;;;;;;;10.86;100.00;100436.31;5056376;28;20394;-76
2023/05/11 03:42:24;;;;;;;9.00;5.65;;;;;;;10.85;100.00;100438.38;5055409;28;20016;-77
2023/05/11 03:44:57;;;;;;;11.88;6.13;;;;;;;10.86;100.00;100439.97;5056006;28;20338;-78
2023/05/11 03:47:25;;;;;;;9.98;5.53;;;;;;;10.88;100.00;100433.72;5055966;28;20113;-78
2023/05/11 03:49:52;;;;;;;9.43;6.25;;;;;;;10.89;100.00;100436.09;5055391;28;20098;-79
2023/05/11 03:52:19;;;;;;;10.15;6.53;;;;;;;10.87;100.00;100441.53;5038772;28;20033;-77
2023/05/11 03:54:46;;;;;;;10.13;6.13;;;;;;;10.88;100.00;100431.66;5038481;28;20128;-77
2023/05/11 03:57:13;;;;;;;15.35;6.47;;;;;;;10.88;100.00;100437.38;5056754;28;20106;-79
2023/05/11 03:59:39;;;;;;;11.98;6.20;;;;;;;10.86;100.00;100439.16;5056282;28;20025;-79
2023/05/11 04:02:06;;;;;;;10.27;6.10;;;;;;;10.89;100.00;100436.09;5056090;28;20132;-79
2023/05/11 04:04:32;;;;;;;8.48;6.00;;;;;;;10.89;100.00;100430.38;5038595;28;20099;-78
2023/05/11 04:06:58;;;;;;;13.82;6.85;;;;;;;10.98;100.00;100432.34;5056177;28;20537;-76
2023/05/11 04:09:24;;;;;;;9.90;6.18;;;;;;;11.02;100.00;100432.97;5056245;28;20039;-76
2023/05/11 04:11:49;;;;;;;10.10;6.43;;;;;;;10.99;100.00;100434.72;5055121;28;20028;-79
2023/05/11 04:14:16;;;;;;;10.13;5.82;;;;;;;11.12;100.00;100448.78;5056014;28;20021;-78
2023/05/11 04:16:42;;;;;;;9.70;6.28;;;;;;;11.18;100.00;100446.00;5054926;28;20163;-75
2023/05/11 04:19:09;;;;;;;13.82;5.85;;;;;;;11.21;100.00;100439.31;5062177;28;20108;-76
2023/05/11 04:21:36;;;;;;;12.82;6.28;;;;;;;11.28;100.00;100436.03;5073268;28;20036;-78
2023/05/11 04:24:01;;;;;;;15.30;6.93;;;;;;;11.36;100.00;100442.94;5074951;28;20005;-79
2023/05/11 04:26:27;;;;;;;10.50;6.05;;;;;;;11.39;100.00;100444.78;5074476;28;20028;-77
2023/05/11 04:28:54;;;;;;;9.05;5.40;;;;;;;11.46;100.00;100450.13;5062727;28;20466;-77
2023/05/11 04:31:21;;;;;;;10.65;6.20;;;;;;;11.55;100.00;100444.28;5057250;28;20021;-75
2023/05/11 04:33:47;;;;;;;10.93;6.35;;;;;;;11.69;100.00;100448.41;5055782;28;20029;-80
2023/05/11 04:36:12;;;;;;;10.82;6.93;;;;;;;11.78;100.00;100459.72;5056315;28;20021;-77
2023/05/11 04:38:39;;;;;;;11.55;6.80;;;;;;;11.81;100.00;100450.91;5059144;28;20104;-89
2023/05/11 04:41:07;;;;;;;7.38;5.45;;;;;;;11.92;100.00;100461.75;5045930;28;20029;-85
2023/05/11 04:43:34;;;;;;;16.17;6.78;;;;;;;12.05;100.00;100455.69;5058159;28;20493;-83
2023/05/11 04:46:00;;;;;;;17.25;6.50;;;;;;;12.15;100.00;100445.69;5055309;28;20025;-85
2023/05/11 04:48:26;;;;;;;12.38;6.85;;;;;;;12.33;100.00;100456.84;5057148;28;20025;-84
2023/05/11 04:50:56;;;;;;;12.85;6.47;;;;;;;12.48;100.00;100459.66;5056734;28;20470;-87
2023/05/11 04:53:23;;;;;;;13.00;7.13;;;;;;;12.60;99.22;100467.88;5057429;28;20485;-89
2023/05/11 04:55:49;;;;;;;13.90;6.40;;;;;;;12.69;98.54;100466.97;5039557;28;20091;-88
2023/05/11 04:58:15;;;;;;;11.60;6.10;;;;;;;12.74;97.75;100448.25;5042026;28;20063;-85
2023/05/11 05:00:41;;;;;;;16.80;6.32;;;;;;;12.84;97.36;100447.59;5058828;28;20471;-85
2023/05/11 05:03:06;;;;;;;12.45;6.68;;;;;;;13.05;96.49;100462.63;5056163;28;20057;-88
2023/05/11 05:05:32;;;;;;;12.88;6.43;;;;;;;13.14;95.26;100468.22;5055479;28;20033;-87
2023/05/11 05:07:58;;;;;;;15.80;7.35;;;;;;;13.12;95.08;100453.59;5056565;28;20021;-87
2023/05/11 05:10:24;;;;;;;24.05;8.45;;;;;;;13.30;94.10;100469.66;5055472;28;20033;-89
2023/05/11 05:12:49;;;;;;;11.35;6.82;;;;;;;13.32;93.57;100456.38;5057534;28;20040;-88
2023/05/11 05:15:15;;;;;;;11.82;6.68;;;;;;;13.55;94.03;100468.88;5055509;28;20029;-88
2023/05/11 05:17:43;;;;;;;13.07;6.47;;;;;;;13.79;93.07;100468.50;5038038;28;20211;-88
2023/05/11 05:20:15;;;;;;;13.07;5.78;;;;;;;14.03;92.20;100453.81;5054978;28;20027;-87
2023/05/11 05:22:40;;;;;;;11.93;6.80;;;;;;;14.19;89.09;100479.75;5052848;28;20469;-90
2023/05/11 05:25:08;;;;;;;10.13;6.40;;;;;;;14.24;88.98;100476.13;5037414;28;20021;-88
2023/05/11 05:27:35;;;;;;;15.32;7.25;;;;;;;14.35;89.20;100461.81;5037447;28;20020;-87
2023/05/11 05:30:06;;;;;;;10.23;6.78;;;;;;;14.62;88.74;100465.34;5054415;28;20025;-87
2023/05/11 05:32:32;;;;;;;10.23;6.22;;;;;;;14.85;87.58;100464.13;5053162;28;20108;-87
2023/05/11 05:35:02;;;;;;;12.68;6.03;;;;;;;14.96;85.43;100486.38;5053137;28;20024;-89
2023/05/11 05:37:29;;;;;;;13.10;5.82;;;;;;;14.94;85.44;100481.16;5054255;28;20036;-90
2023/05/11 05:39:56;;;;;;;10.48;6.63;;;;;;;15.09;84.68;100475.94;5053227;28;20168;-88
2023/05/11 05:42:22;;;;;;;14.60;7.25;;;;;;;15.24;82.41;100473.63;5058098;28;20017;-86
2023/05/11 05:44:48;;;;;;;13.40;6.32;;;;;;;15.43;82.52;100467.34;5045923;28;20032;-90
2023/05/11 05:47:15;;;;;;;12.98;5.68;;;;;;;15.79;80.89;100495.13;5054201;28;20362;-89
2023/05/11 05:49:41;;;;;;;9.45;6.25;;;;;;;16.00;79.65;100487.00;5052322;28;20029;-88
2023/05/11 05:52:06;;;;;;;16.38;6.15;;;;;;;16.35;77.55;100492.91;5053605;28;20036;-88
2023/05/11 05:54:34;;;;;;;14.65;6.80;;;;;;;16.64;74.64;100482.91;5055059;28;20108;-86
2023/05/11 05:57:00;;;;;;;13.32;6.63;;;;;;;16.98;71.74;100492.19;5053520;28;20020;-89
2023/05/11 05:59:28;;;;;;;13.20;6.65;;;;;;;16.94;67.34;100498.22;5053627;28;20032;-88
2023/05/11 06:01:53;;;;;;;10.35;6.28;;;;;;;16.94;68.78;100509.00;5054163;28;20617;-89
2023/05/11 06:04:19;;;;;;;13.65;6.72;;;;;;;17.13;69.62;100497.59;5038142;28;20028;-90
2023/05/11 06:06:46;;;;;;;12.18;5.97;;;;;;;17.53;68.20;100504.72;5060522;28;20025;-88
2023/05/11 06:09:12;;;;;;;10.20;6.00;;;;;;;17.78;64.63;100507.13;5069122;28;20056;-88
2023/05/11 06:11:38;;;;;;;19.88;7.40;;;;;;;17.65;62.76;100498.31;5055925;28;20087;-88
2023/05/11 06:14:07;;;;;;;11.82;6.50;;;;;;;17.64;64.01;100493.06;5060262;28;20044;-87
2023/05/11 06:16:34;;;;;;;15.68;6.68;;;;;;;17.89;64.06;100506.25;5078079;28;20021;-87
2023/05/11 06:19:00;;;;;;;16.48;7.47;;;;;;;17.95;63.48;100506.97;5077467;28;20029;-88
2023/05/11 06:21:27;;;;;;;14.90;7.10;;;;;;;17.85;63.55;100502.88;5063814;28;20032;-89
2023/05/11 06:23:53;;;;;;;10.75;5.88;;;;;;;17.78;63.52;100510.00;5054543;28;20057;-89
2023/05/11 06:26:23;;;;;;;14.27;6.32;;;;;;;17.55;63.50;100508.63;5037172;28;20036;-88
2023/05/11 06:28:51;;;;;;;10.75;6.57;;;;;;;17.19;66.86;100509.91;5057324;28;20092;-88
2023/05/11 06:31:18;;;;;;;9.43;5.75;;;;;;;17.29;69.08;100494.59;5056953;28;20028;-89
2023/05/11 06:33:46;;;;;;;11.75;6.05;;;;;;;18.77;66.05;100500.06;5056766;28;20025;-88
2023/05/11 06:36:13;;;;;;;11.98;5.93;;;;;;;20.96;59.25;100505.31;5057455;28;20020;-85
2023/05/11 06:38:39;;;;;;;8.65;5.25;;;;;;;23.41;47.55;100522.16;5057046;28;20446;-85
2023/05/11 06:41:09;;;;;;;7.47;5.20;;;;;;;25.35;40.06;100523.25;5060683;28;20100;-85
2023/05/11 06:43:37;;;;;;;6.88;4.97;;;;;;;26.83;35.08;100524.72;5056595;28;20128;-86
2023/05/11 06:46:04;;;;;;;7.03;4.50;;;;;;;27.49;32.52;100536.25;5042582;28;20457;-85
2023/05/11 06:48:38;;;;;;;8.10;4.47;;;;;;;28.24;32.11;100521.84;5038512;28;20025;-84
2023/05/11 06:51:04;;;;;;;7.72;4.80;;;;;;;28.65;31.27;100510.31;5071755;28;20044;-84
2023/05/11 06:53:30;;;;;;;16.30;5.70;;;;;;;29.01;30.33;100515.31;5055206;28;20067;-79
2023/05/11 06:55:56;;;;;;;21.27;4.97;;;;;;;29.39;29.99;100508.66;5034617;28;20049;-80
2023/05/11 06:58:22;;;;;;;9.52;5.35;;;;;;;29.53;29.15;100518.53;5036971;28;20029;-81
2023/05/11 07:00:48;;;;;;;7.53;4.80;;;;;;;28.93;29.21;100509.59;5051355;28;20120;-76
2023/05/11 07:03:14;;;;;;;9.23;5.38;;;;;;;28.08;30.40;100517.59;5053541;28;20100;-77
2023/05/11 07:05:40;;;;;;;6.70;3.72;;;;;;;27.82;32.07;100515.41;5053468;28;20009;-81
2023/05/11 07:08:06;;;;;;;7.78;4.97;;;;;;;28.90;30.21;100516.72;5035498;28;20021;-81
2023/05/11 07:10:32;;;;;;;8.38;5.10;;;;;;;30.01;29.90;100509.59;5053240;28;20082;-79
2023/05/11 07:12:58;;;;;;;7.07;3.88;;;;;;;31.02;27.98;100502.03;5054093;28;20036;-79
2023/05/11 07:15:25;;;;;;;7.72;4.32;;;;;;;31.17;26.23;100509.69;5060081;28;20524;-80
2023/05/11 07:17:52;;;;;;;10.50;4.32;;;;;;;30.76;27.09;100491.38;5058380;28;20132;-81
2023/05/11 07:20:17;;;;;;;5.38;3.67;;;;;;;30.17;27.81;100504.88;5060081;28;20048;-80
2023/05/11 07:22:43;;;;;;;8.75;4.53;;;;;;;30.77;27.79;100499.59;5058021;28;20067;-79
2023/05/11 07:25:10;;;;;;;7.15;4.32;;;;;;;31.49;27.76;100505.97;5058305;28;20049;-78
2023/05/11 07:27:37;;;;;;;6.97;4.30;;;;;;;32.42;25.97;100505.34;5059546;28;20028;-76
2023/05/11 07:30:03;;;;;;;9.32;4.30;;;;;;;32.81;25.18;100500.41;5058688;28;20104;-77
2023/05/11 07:32:29;;;;;;;6.97;4.60;;;;;;;32.76;24.75;100501.59;5058616;28;20033;-78
2023/05/11 07:34:57;;;;;;;13.45;4.13;;;;;;;33.31;24.85;100499.75;5042657;28;20463;-79
2023/05/11 07:37:24;;;;;;;9.18;4.10;;;;;;;33.32;24.21;100500.50;5058793;28;20024;-76
2023/05/11 07:39:53;;;;;;;7.93;4.10;;;;;;;33.83;24.32;100498.28;5058283;28;20029;-80
2023/05/11 07:42:19;;;;;;;15.75;4.68;;;;;;;34.61;22.72;100495.97;5059837;28;20032;-77
2023/05/11 07:44:44;;;;;;;8.43;3.80;;;;;;;34.97;22.56;100490.44;5059103;28;20029;-78
2023/05/11 07:47:10;;;;;;;10.00;3.92;;;;;;;35.19;22.87;100485.66;5059922;28;20154;-77
2023/05/11 07:49:36;;;;;;;14.52;3.88;;;;;;;35.37;22.79;100488.78;5059385;28;20374;-78
2023/05/11 07:52:03;;;;;;;6.53;3.65;;;;;;;35.48;22.18;100494.59;5059032;28;20122;-78
2023/05/11 07:54:28;;;;;;;7.63;4.00;;;;;;;35.43;21.63;100483.91;5059629;28;20031;-77
2023/05/11 07:56:56;;;;;;;32.00;6.55;;;;;;;34.29;22.60;100491.25;5059487;28;20025;-77
2023/05/11 07:59:22;;;;;;;39.13;6.35;;;;;;;34.18;23.53;100486.19;5059699;28;20045;-78
2023/05/11 08:01:50;;;;;;;9.52;3.83;;;;;;;34.14;23.64;100483.00;5057620;28;20045;-76
2023/05/11 08:04:16;;;;;;;9.25;4.50;;;;;;;33.89;23.82;100487.53;5059532;28;20021;-81
2023/05/11 08:06:41;;;;;;;6.68;3.78;;;;;;;33.95;24.03;100484.16;5059756;28;20040;-84
2023/05/11 08:09:08;;;;;;;27.67;5.18;;;;;;;33.50;23.02;100486.75;5059884;28;20542;-82
2023/05/11 08:11:34;;;;;;;19.40;4.05;;;;;;;33.08;23.24;100488.72;5059179;28;20036;-84
2023/05/11 08:14:02;;;;;;;15.50;4.22;;;;;;;32.75;23.72;100493.34;5060145;28;20024;-83
2023/05/11 08:16:27;;;;;;;5.32;3.70;;;;;;;32.08;23.25;100495.03;5059965;28;20111;-84
2023/05/11 08:18:53;;;;;;;6.63;3.63;;;;;;;31.37;25.24;100494.09;5059370;28;20079;-86
2023/05/11 08:21:19;;;;;;;6.25;3.58;;;;;;;31.09;26.44;100492.19;5059077;28;20021;-77
2023/05/11 08:23:46;;;;;;;6.95;3.17;;;;;;;31.22;26.60;100493.78;5058604;28;20117;-81
2023/05/11 08:26:12;;;;;;;4.13;3.03;;;;;;;32.10;24.68;100501.06;5054696;28;20032;-77
2023/05/11 08:28:38;;;;;;;5.28;3.20;;;;;;;32.81;23.90;100493.72;5054579;28;20036;-78
2023/05/11 08:31:05;;;;;;;5.30;2.83;;;;;;;33.41;23.46;100490.66;5055875;28;20098;-81
2023/05/11 08:33:31;;;;;;;4.72;3.22;;;;;;;33.67;23.40;100488.50;5054927;28;20094;-84
2023/05/11 08:35:59;;;;;;;6.85;3.17;;;;;;;33.40;23.20;100489.13;5058614;28;20029;-82
2023/05/11 08:38:26;;;;;;;7.57;3.00;;;;;;;32.68;24.17;100483.34;5057661;28;20025;-80
2023/05/11 08:40:52;;;;;;;30.77;4.93;;;;;;;31.72;23.80;100488.31;5054850;28;20108;-80
2023/05/11 08:43:18;;;;;;;18.02;3.10;;;;;;;30.79;24.83;100472.38;5021831;28;20183;-80
2023/05/11 08:45:47;;;;;;;62.92;7.68;;;;;;;30.37;25.91;100485.69;5054806;28;20033;-80
2023/05/11 08:48:16;;;;;;;5.85;3.30;;;;;;;30.71;26.45;100490.31;5038497;28;20033;-80
2023/05/11 08:50:46;;;;;;;13.63;4.20;;;;;;;31.19;26.13;100495.06;5055859;28;20033;-80
2023/05/11 08:53:12;;;;;;;10.80;3.75;;;;;;;31.29;26.06;100489.84;5021783;28;20028;-80
2023/05/11 08:55:40;;;;;;;10.82;4.10;;;;;;;31.21;25.79;100495.19;5055908;28;20032;-81
2023/05/11 08:58:21;;;;;;;9.15;4.30;;;;;;;30.71;25.75;100481.44;5054729;28;20037;-81
2023/05/11 09:00:48;;;;;;;5.32;3.70;;;;;;;29.81;26.98;100482.38;5055743;28;20028;-81
2023/05/11 09:03:16;;;;;;;21.27;5.90;;;;;;;29.30;27.83;100492.56;5055341;28;20132;-80
2023/05/11 09:05:45;;;;;;;10.35;4.50;;;;;;;28.65;28.75;100495.63;5038418;28;20036;-82
2023/05/11 09:08:12;;;;;;;6.63;3.78;;;;;;;28.05;29.99;100491.59;5038182;28;20055;-82
2023/05/11 09:10:43;;;;;;;6.50;4.60;;;;;;;27.93;29.81;100500.97;5038142;28;20036;-82
2023/05/11 09:13:18;;;;;;;5.82;4.32;;;;;;;27.35;30.79;100504.94;5054998;28;20064;-83
2023/05/11 09:15:44;;;;;;;6.63;4.40;;;;;;;26.79;31.75;100500.91;5055444;28;20068;-82
2023/05/11 09:18:19;;;;;;;5.32;4.63;;;;;;;26.42;32.44;100494.78;5055609;28;20078;-82
2023/05/11 09:20:46;;;;;;;6.90;4.38;;;;;;;26.31;33.78;100507.81;5055561;28;20037;-85
2023/05/11 09:23:16;;;;;;;7.78;4.43;;;;;;;26.81;33.47;100504.81;5037432;28;20052;-86
2023/05/11 09:25:43;;;;;;;6.90;4.60;;;;;;;27.44;33.37;100495.44;5055348;28;20108;-85
2023/05/11 09:28:15;;;;;;;4.95;4.30;;;;;;;27.91;32.10;100497.88;5053935;28;20442;-84
2023/05/11 09:30:41;;;;;;;8.95;4.25;;;;;;;28.11;31.46;100492.06;5054088;28;20037;-84
2023/05/11 09:33:07;;;;;;;7.15;4.18;;;;;;;28.45;31.18;100486.75;5054197;28;20028;-80
2023/05/11 09:35:34;;;;;;;5.47;3.95;;;;;;;28.79;31.18;100479.84;5054511;28;20486;-76
2023/05/11 09:38:06;;;;;;;8.80;4.85;;;;;;;28.70;30.20;100482.78;5038188;28;20048;-88
2023/05/11 09:40:45;;;;;;;4.93;3.88;;;;;;;28.37;30.36;100476.50;5055989;28;20033;-88
2023/05/11 09:43:22;;;;;;;4.38;3.13;;;;;;;27.94;29.89;100478.25;5053969;28;20040;-81
2023/05/11 09:45:50;;;;;;;7.80;3.00;;;;;;;27.35;29.87;100484.41;5055036;28;20021;-80
2023/05/11 09:48:19;;;;;;;7.18;3.33;;;;;;;26.43;29.85;100496.34;5053488;28;20037;-80
2023/05/11 09:51:02;;;;;;;5.53;2.90;;;;;;;25.79;30.65;100482.63;5054852;28;20028;-79
2023/05/11 09:53:43;;;;;;;5.97;2.90;;;;;;;25.61;30.39;100486.84;5053597;28;20069;-81
2023/05/11 09:56:10;;;;;;;4.50;2.30;;;;;;;25.39;30.06;100486.34;5054325;28;20411;-78
2023/05/11 09:58:51;;;;;;;5.35;2.92;;;;;;;25.76;31.23;100484.59;5054687;28;20382;-82
2023/05/11 10:01:28;;;;;;;4.15;2.60;;;;;;;26.07;31.00;100479.28;5036590;28;20028;-85
2023/05/11 10:03:54;;;;;;;6.82;3.63;;;;;;;26.45;31.12;100478.97;5037064;28;20025;-86
2023/05/11 10:06:20;;;;;;;7.57;3.17;;;;;;;26.94;30.88;100480.97;5055044;28;20486;-86
2023/05/11 10:08:48;;;;;;;5.60;2.55;;;;;;;27.32;29.99;100479.72;5053576;28;20025;-84
2023/05/11 10:11:14;;;;;;;3.75;2.20;;;;;;;27.31;28.01;100484.81;5020525;28;20053;-82
2023/05/11 10:13:43;;;;;;;4.78;1.90;;;;;;;27.01;28.39;100477.16;5053355;28;20028;-83
2023/05/11 10:16:11;;;;;;;2.15;1.95;;;;;;;26.73;28.24;100468.91;5052898;28;20029;-80
2023/05/11 10:18:36;;;;;;;3.67;2.17;;;;;;;26.67;29.08;100471.28;5036322;28;20037;-81
2023/05/11 10:21:03;;;;;;;3.92;2.30;;;;;;;26.50;29.90;100468.34;5019644;28;20044;-78
2023/05/11 10:23:32;;;;;;;4.38;2.25;;;;;;;25.76;28.67;100449.47;5053167;28;20029;-80
2023/05/11 10:26:00;;;;;;;5.07;1.80;;;;;;;24.98;29.50;100451.88;5039344;28;20029;-79
2023/05/11 10:28:26;;;;;;;7.70;2.58;;;;;;;24.58;31.03;100452.56;5054361;28;20051;-80
2023/05/11 10:30:54;;;;;;;4.28;2.63;;;;;;;24.45;32.13;100458.63;5054518;28;20087;-82
2023/05/11 10:33:28;;;;;;;5.22;3.10;;;;;;;24.43;33.35;100446.75;5020540;28;20116;-81
2023/05/11 10:35:54;;;;;;;4.97;2.55;;;;;;;24.45;32.93;100461.53;5052938;28;20033;-76
2023/05/11 10:38:22;;;;;;;6.35;2.63;;;;;;;24.23;32.63;100468.22;5036252;28;20028;-79
2023/05/11 10:40:49;;;;;;;4.40;2.40;;;;;;;23.92;31.53;100466.63;5035867;28;20094;-77
2023/05/11 10:43:45;;;;;;;6.20;2.00;;;;;;;24.01;32.25;100460.97;5052601;28;20032;-77
2023/05/11 10:46:36;;;;;;;2.17;1.98;;;;;;;24.15;32.23;100459.41;5052109;28;20029;-78
2023/05/11 10:49:01;;;;;;;3.90;1.67;;;;;;;24.18;27.58;100455.34;5052383;28;20111;-77
2023/05/11 10:52:15;;;;;;;6.78;2.60;;;;;;;24.08;29.97;100450.66;5053264;28;20120;-78
2023/05/11 10:54:46;;;;;;;7.03;2.47;;;;;;;23.75;30.11;100447.53;5053311;28;20020;-77
2023/05/11 10:57:29;;;;;;;4.55;1.60;;;;;;;23.70;26.46;100451.44;5053779;28;20111;-78
2023/05/11 11:00:34;;;;;;;3.85;2.05;;;;;;;23.58;28.84;100435.66;5052553;28;20025;-76
2023/05/11 11:03:29;;;;;;;3.72;2.08;;;;;;;23.57;31.10;100442.88;5053084;28;20128;-77
2023/05/11 11:05:57;;;;;;;2.28;1.77;;;;;;;23.35;25.98;100431.91;5048127;28;20029;-78
2023/05/11 11:08:24;;;;;;;3.13;1.73;;;;;;;23.22;27.56;100420.41;5052030;28;20047;-77
2023/05/11 11:10:51;;;;;;;4.13;2.05;;;;;;;22.93;28.17;100432.19;5053431;28;20050;-76
2023/05/11 11:13:18;;;;;;;4.63;1.98;;;;;;;22.84;29.16;100429.78;5052012;28;20136;-77
2023/05/11 11:16:05;;;;;;;3.97;2.03;;;;;;;22.93;30.18;100428.47;5050979;28;20044;-77
2023/05/11 11:18:33;;;;;;;6.28;2.30;;;;;;;23.11;27.87;100432.44;5050438;28;20033;-78
2023/05/11 11:21:14;;;;;;;5.03;2.40;;;;;;;23.06;28.63;100422.53;5052191;28;20478;-76
2023/05/11 11:23:42;;;;;;;2.72;1.85;;;;;;;23.11;29.14;100429.53;5051830;28;20485;-77
2023/05/11 11:26:09;;;;;;;7.40;2.70;;;;;;;23.11;30.20;100424.44;5051768;28;20025;-78
2023/05/11 11:29:07;;;;;;;7.93;2.55;;;;;;;22.89;29.65;100442.66;5049698;28;20025;-77